createdAt,value
2019-05-30T00:00:54.080Z,10.60
2019-05-30T00:03:27.518Z,10.70
2019-05-30T00:06:00.905Z,10.73
2019-05-30T00:08:34.297Z,10.77
2019-05-30T00:11:07.780Z,10.83
2019-05-30T00:13:41.201Z,10.83
2019-05-30T00:16:14.608Z,10.83
2019-05-30T00:18:48.041Z,10.81
2019-05-30T00:21:21.433Z,10.72
2019-05-30T00:23:55.773Z,10.67
2019-05-30T00:26:29.316Z,10.58
2019-05-30T00:29:02.781Z,10.51
2019-05-30T00:31:36.187Z,10.44
2019-05-30T00:34:09.593Z,10.48
2019-05-30T00:36:43.014Z,10.50
2019-05-30T00:39:16.431Z,10.48
2019-05-30T00:41:49.847Z,10.43
2019-05-30T00:44:23.260Z,10.29
2019-05-30T00:46:57.851Z,10.20
2019-05-30T00:49:31.482Z,10.07
2019-05-30T00:52:05.194Z,9.98
2019-05-30T00:54:38.656Z,9.97
2019-05-30T00:57:12.285Z,9.77
2019-05-30T00:59:45.723Z,9.80
2019-05-30T01:02:19.185Z,9.85
2019-05-30T01:04:52.611Z,10.06
2019-05-30T01:07:26.034Z,10.26
2019-05-30T01:09:59.512Z,10.31
2019-05-30T01:12:32.909Z,10.39
2019-05-30T01:15:10.599Z,10.41
2019-05-30T01:17:44.015Z,10.36
2019-05-30T01:20:18.684Z,10.36
2019-05-30T01:22:52.146Z,10.27
2019-05-30T01:25:25.570Z,10.23
2019-05-30T01:27:59.509Z,10.27
2019-05-30T01:30:32.973Z,10.29
2019-05-30T01:33:07.638Z,10.35
2019-05-30T01:35:41.455Z,10.28
2019-05-30T01:38:14.859Z,10.25
2019-05-30T01:40:48.280Z,10.22
2019-05-30T01:43:21.663Z,10.12
2019-05-30T01:45:55.084Z,10.11
2019-05-30T01:48:29.580Z,10.23
2019-05-30T01:51:03.013Z,10.29
2019-05-30T01:53:36.482Z,10.37
2019-05-30T01:56:09.903Z,10.36
2019-05-30T01:58:43.305Z,10.35
2019-05-30T02:01:24.294Z,10.29
2019-05-30T02:03:51.824Z,10.21
2019-05-30T02:06:25.250Z,10.15
2019-05-30T02:08:59.136Z,10.13
2019-05-30T02:11:32.750Z,10.17
2019-05-30T02:14:06.153Z,10.28
2019-05-30T02:16:39.572Z,10.31
2019-05-30T02:19:12.979Z,10.28
2019-05-30T02:21:46.394Z,10.29
2019-05-30T02:24:19.794Z,10.33
2019-05-30T02:26:53.221Z,10.27
2019-05-30T02:29:26.682Z,10.22
2019-05-30T02:32:01.072Z,10.13
2019-05-30T02:34:35.225Z,10.06
2019-05-30T02:37:10.769Z,9.98
2019-05-30T02:39:43.764Z,9.96
2019-05-30T02:42:17.202Z,9.88
2019-05-30T02:44:50.585Z,9.77
2019-05-30T02:47:23.997Z,9.81
2019-05-30T02:49:57.393Z,9.83
2019-05-30T02:52:30.824Z,9.78
2019-05-30T02:55:06.662Z,9.74
2019-05-30T02:57:39.907Z,9.68
2019-05-30T03:00:17.488Z,9.57
2019-05-30T03:02:48.992Z,9.49
2019-05-30T03:05:22.410Z,9.48
2019-05-30T03:07:56.166Z,9.47
2019-05-30T03:10:29.741Z,9.42
2019-05-30T03:13:04.110Z,9.35
2019-05-30T03:15:38.352Z,9.30
2019-05-30T03:18:12.873Z,9.27
2019-05-30T03:20:47.209Z,9.21
2019-05-30T03:23:20.698Z,9.12
2019-05-30T03:25:54.120Z,9.05
2019-05-30T03:28:27.973Z,9.03
2019-05-30T03:31:05.924Z,9.01
2019-05-30T03:33:42.002Z,8.96
2019-05-30T03:36:23.914Z,8.79
2019-05-30T03:38:48.456Z,8.74
2019-05-30T03:41:21.942Z,8.73
2019-05-30T03:43:55.402Z,8.73
2019-05-30T03:46:31.873Z,8.79
2019-05-30T03:49:09.115Z,8.83
2019-05-30T03:51:45.326Z,8.82
2019-05-30T03:54:19.878Z,8.85
2019-05-30T03:57:02.492Z,8.89
2019-05-30T03:59:44.675Z,8.88
2019-05-30T04:02:33.157Z,8.92
2019-05-30T04:05:09.674Z,8.93
2019-05-30T04:07:50.154Z,8.96
2019-05-30T04:10:26.611Z,9.06
2019-05-30T04:13:27.174Z,9.11
2019-05-30T04:16:00.601Z,9.14
2019-05-30T04:18:34.001Z,9.20
2019-05-30T04:21:08.514Z,9.15
2019-05-30T04:23:42.376Z,9.32
2019-05-30T04:26:16.141Z,9.48
2019-05-30T04:28:50.962Z,9.60
2019-05-30T04:31:24.385Z,9.59
2019-05-30T04:33:57.828Z,9.70
2019-05-30T04:36:31.237Z,10.13
2019-05-30T04:39:08.633Z,10.21
2019-05-30T04:41:42.274Z,10.31
2019-05-30T04:44:16.356Z,10.58
2019-05-30T04:46:50.903Z,11.10
2019-05-30T04:49:24.301Z,11.15
2019-05-30T04:51:57.790Z,11.13
2019-05-30T04:54:31.161Z,12.08
2019-05-30T04:57:04.662Z,12.24
2019-05-30T04:59:38.077Z,11.82
2019-05-30T05:02:13.516Z,12.04
2019-05-30T05:04:46.599Z,12.69
2019-05-30T05:07:20.029Z,12.96
2019-05-30T05:09:53.438Z,13.49
2019-05-30T05:12:26.830Z,13.51
2019-05-30T05:15:00.237Z,12.99
2019-05-30T05:17:33.678Z,12.77
2019-05-30T05:20:10.350Z,12.87
2019-05-30T05:22:43.755Z,12.88
2019-05-30T05:25:17.488Z,13.15
2019-05-30T05:27:50.948Z,14.14
2019-05-30T05:30:24.511Z,15.05
2019-05-30T05:32:57.921Z,15.39
2019-05-30T05:35:31.334Z,14.58
2019-05-30T05:38:04.809Z,14.56
2019-05-30T05:40:38.237Z,14.82
2019-05-30T05:43:11.671Z,15.08
2019-05-30T05:45:45.124Z,14.98
2019-05-30T05:48:20.485Z,14.84
2019-05-30T05:50:53.914Z,16.16
2019-05-30T05:53:27.332Z,15.83
2019-05-30T05:56:00.710Z,16.74
2019-05-30T05:58:34.124Z,15.83
2019-05-30T06:01:07.504Z,16.75
2019-05-30T06:03:40.930Z,17.08
2019-05-30T06:06:14.416Z,16.86
2019-05-30T06:08:47.797Z,16.36
2019-05-30T06:11:21.199Z,15.74
2019-05-30T06:13:54.611Z,15.87
2019-05-30T06:16:28.416Z,16.61
2019-05-30T06:19:01.898Z,16.05
2019-05-30T06:21:35.301Z,15.92
2019-05-30T06:24:08.736Z,17.17
2019-05-30T06:26:43.657Z,16.64
2019-05-30T06:29:17.970Z,16.95
2019-05-30T06:31:51.579Z,17.34
2019-05-30T06:34:35.959Z,17.10
2019-05-30T06:37:00.236Z,17.64
2019-05-30T06:39:33.712Z,17.27
2019-05-30T06:42:07.304Z,18.20
2019-05-30T06:44:40.709Z,17.38
2019-05-30T06:47:14.201Z,16.93
2019-05-30T06:49:47.608Z,17.61
2019-05-30T06:52:29.177Z,18.01
2019-05-30T06:55:02.671Z,18.08
2019-05-30T06:57:36.085Z,18.25
2019-05-30T07:00:09.846Z,17.93
2019-05-30T07:02:43.291Z,18.68
2019-05-30T07:05:17.707Z,18.19
2019-05-30T07:07:51.625Z,18.51
2019-05-30T07:10:26.800Z,18.26
2019-05-30T07:13:00.296Z,18.35
2019-05-30T07:15:34.382Z,18.43
2019-05-30T07:18:07.924Z,17.49
2019-05-30T07:20:41.321Z,17.36
2019-05-30T07:23:14.734Z,17.97
2019-05-30T07:25:48.164Z,17.60
2019-05-30T07:28:21.652Z,17.63
2019-05-30T07:30:55.152Z,17.57
2019-05-30T07:33:28.572Z,18.28
2019-05-30T07:36:02.808Z,18.70
2019-05-30T07:38:36.283Z,18.15
2019-05-30T07:41:09.788Z,18.35
2019-05-30T07:43:43.223Z,18.62
2019-05-30T07:46:16.722Z,19.11
2019-05-30T07:48:50.133Z,18.77
2019-05-30T07:51:24.532Z,19.32
2019-05-30T07:53:58.035Z,18.90
2019-05-30T07:56:31.452Z,18.62
2019-05-30T07:59:04.989Z,19.24
2019-05-30T08:01:39.654Z,19.25
2019-05-30T08:04:13.317Z,18.97
2019-05-30T08:06:46.749Z,19.12
2019-05-30T08:09:20.140Z,18.98
2019-05-30T08:11:54.045Z,19.45
2019-05-30T08:14:27.453Z,19.39
2019-05-30T08:17:00.907Z,19.56
2019-05-30T08:19:34.467Z,19.37
2019-05-30T08:22:07.805Z,19.22
2019-05-30T08:24:41.231Z,19.38
2019-05-30T08:27:14.638Z,19.66
2019-05-30T08:29:48.055Z,20.28
2019-05-30T08:32:21.480Z,20.33
2019-05-30T08:34:54.860Z,20.15
2019-05-30T08:37:28.922Z,19.65
2019-05-30T08:40:02.358Z,19.43
2019-05-30T08:42:35.793Z,19.63
2019-05-30T08:45:10.451Z,19.33
2019-05-30T08:47:44.008Z,19.30
2019-05-30T08:50:17.859Z,19.39
2019-05-30T08:52:51.310Z,19.14
2019-05-30T08:55:24.710Z,19.53
2019-05-30T08:57:58.133Z,19.48
2019-05-30T09:00:31.686Z,19.72
2019-05-30T09:03:05.627Z,19.62
2019-05-30T09:05:55.555Z,19.82
2019-05-30T09:08:14.195Z,19.87
2019-05-30T09:10:47.585Z,20.63
2019-05-30T09:13:21.072Z,20.78
2019-05-30T09:15:54.596Z,20.23
2019-05-30T09:18:27.993Z,20.24
2019-05-30T09:21:01.434Z,20.32
2019-05-30T09:23:34.865Z,20.89
2019-05-30T09:26:08.363Z,21.00
2019-05-30T09:28:42.221Z,20.82
2019-05-30T09:31:15.761Z,21.65
2019-05-30T09:33:49.154Z,21.32
2019-05-30T09:36:22.604Z,21.76
2019-05-30T09:38:56.058Z,21.32
2019-05-30T09:41:29.489Z,21.58
2019-05-30T09:44:02.923Z,21.68
2019-05-30T09:46:36.435Z,21.85
2019-05-30T09:49:09.872Z,21.77
2019-05-30T09:51:44.135Z,21.41
2019-05-30T09:54:18.566Z,21.25
2019-05-30T09:56:53.132Z,21.05
2019-05-30T09:59:26.984Z,20.79
2019-05-30T10:02:00.463Z,20.08
2019-05-30T10:04:33.867Z,20.49
2019-05-30T10:07:07.274Z,20.54
2019-05-30T10:09:40.701Z,20.42
2019-05-30T10:12:14.146Z,20.63
2019-05-30T10:14:48.617Z,20.97
2019-05-30T10:17:22.337Z,21.50
2019-05-30T10:19:57.234Z,21.04
2019-05-30T10:22:30.953Z,21.67
2019-05-30T10:25:06.016Z,21.04
2019-05-30T10:27:39.428Z,21.55
2019-05-30T10:30:13.886Z,21.36
2019-05-30T10:32:48.562Z,20.61
2019-05-30T10:35:22.698Z,21.17
2019-05-30T10:37:56.858Z,20.83
2019-05-30T10:40:32.201Z,20.76
2019-05-30T10:43:08.462Z,21.30
2019-05-30T10:45:40.909Z,21.48
2019-05-30T10:48:14.339Z,22.45
2019-05-30T10:50:48.535Z,22.41
2019-05-30T10:53:22.115Z,22.32
2019-05-30T10:55:56.513Z,21.21
2019-05-30T10:58:29.994Z,20.26
2019-05-30T11:01:03.657Z,20.78
2019-05-30T11:03:37.215Z,20.55
2019-05-30T11:06:19.469Z,20.33
2019-05-30T11:08:55.098Z,20.51
2019-05-30T11:11:28.528Z,20.18
2019-05-30T11:14:01.932Z,20.03
2019-05-30T11:16:35.405Z,20.23
2019-05-30T11:19:08.834Z,20.33
2019-05-30T11:21:42.247Z,20.29
2019-05-30T11:24:15.677Z,20.46
2019-05-30T11:26:50.978Z,20.54
2019-05-30T11:29:24.286Z,20.66
2019-05-30T11:31:58.839Z,20.51
2019-05-30T11:34:32.404Z,20.48
2019-05-30T11:37:18.646Z,20.76
2019-05-30T11:39:40.982Z,20.73
2019-05-30T11:42:14.364Z,20.82
2019-05-30T11:44:47.805Z,20.68
2019-05-30T11:47:21.193Z,20.42
2019-05-30T11:49:55.666Z,20.42
2019-05-30T11:52:29.299Z,20.85
2019-05-30T11:55:02.738Z,20.69
2019-05-30T11:57:36.216Z,20.63
2019-05-30T12:00:10.343Z,20.60
2019-05-30T12:02:43.721Z,21.00
2019-05-30T12:05:17.697Z,21.09
2019-05-30T12:07:51.169Z,21.71
2019-05-30T12:10:25.729Z,21.41
2019-05-30T12:12:59.499Z,21.47
2019-05-30T12:15:33.144Z,21.47
2019-05-30T12:18:06.566Z,21.83
2019-05-30T12:20:40.466Z,22.06
2019-05-30T12:23:13.929Z,22.46
2019-05-30T12:25:47.350Z,21.78
2019-05-30T12:28:20.780Z,22.60
2019-05-30T12:30:59.451Z,22.29
2019-05-30T12:33:29.414Z,22.58
2019-05-30T12:36:02.870Z,23.00
2019-05-30T12:38:36.273Z,22.51
2019-05-30T12:41:09.692Z,22.48
2019-05-30T12:43:43.091Z,22.41
2019-05-30T12:46:16.580Z,22.54
2019-05-30T12:48:50.086Z,22.63
2019-05-30T12:51:23.527Z,22.30
2019-05-30T12:53:56.919Z,22.00
2019-05-30T12:56:30.353Z,21.87
2019-05-30T12:59:03.898Z,22.05
2019-05-30T13:01:37.342Z,21.96
2019-05-30T13:04:10.754Z,22.46
2019-05-30T13:06:44.177Z,22.18
2019-05-30T13:09:17.634Z,22.34
2019-05-30T13:11:51.075Z,22.21
2019-05-30T13:14:24.468Z,22.31
2019-05-30T13:16:57.966Z,21.79
2019-05-30T13:19:31.445Z,21.46
2019-05-30T13:22:04.898Z,21.84
2019-05-30T13:24:38.292Z,21.92
2019-05-30T13:27:11.726Z,22.02
2019-05-30T13:29:46.128Z,22.12
2019-05-30T13:32:19.549Z,21.37
2019-05-30T13:34:52.952Z,21.72
2019-05-30T13:37:26.357Z,21.47
2019-05-30T13:39:59.764Z,21.63
2019-05-30T13:42:33.185Z,21.88
2019-05-30T13:45:08.533Z,21.54
2019-05-30T13:47:41.969Z,21.44
2019-05-30T13:50:15.775Z,21.72
2019-05-30T13:52:49.211Z,21.20
2019-05-30T13:55:22.679Z,21.87
2019-05-30T13:57:56.184Z,21.92
2019-05-30T14:00:29.655Z,22.04
2019-05-30T14:03:04.086Z,21.66
2019-05-30T14:05:37.579Z,21.59
2019-05-30T14:08:16.449Z,21.38
2019-05-30T14:10:46.160Z,21.33
2019-05-30T14:13:19.600Z,21.68
2019-05-30T14:15:53.141Z,21.29
2019-05-30T14:18:26.543Z,21.66
2019-05-30T14:21:01.859Z,21.26
2019-05-30T14:23:35.105Z,21.22
2019-05-30T14:26:09.457Z,21.40
2019-05-30T14:28:42.955Z,21.40
2019-05-30T14:31:16.375Z,21.55
2019-05-30T14:33:49.787Z,21.59
2019-05-30T14:36:23.225Z,21.51
2019-05-30T14:38:58.655Z,21.47
2019-05-30T14:41:31.784Z,21.42
2019-05-30T14:44:05.431Z,21.30
2019-05-30T14:46:38.828Z,21.47
2019-05-30T14:49:12.745Z,21.84
2019-05-30T14:51:46.217Z,21.43
2019-05-30T14:54:19.629Z,21.66
2019-05-30T14:56:53.050Z,21.89
2019-05-30T14:59:26.457Z,21.30
2019-05-30T15:01:59.858Z,21.55
2019-05-30T15:04:33.329Z,21.20
2019-05-30T15:07:07.412Z,21.44
2019-05-30T15:09:42.575Z,21.63
2019-05-30T15:12:16.930Z,21.55
2019-05-30T15:14:50.403Z,21.66
2019-05-30T15:17:23.817Z,21.56
2019-05-30T15:19:57.268Z,21.60
2019-05-30T15:22:30.661Z,21.79
2019-05-30T15:25:05.950Z,21.29
2019-05-30T15:27:39.434Z,21.43
2019-05-30T15:30:15.111Z,21.43
2019-05-30T15:32:48.527Z,21.26
2019-05-30T15:35:22.024Z,21.28
2019-05-30T15:37:55.442Z,21.08
2019-05-30T15:40:28.994Z,20.95
2019-05-30T15:43:02.548Z,20.87
2019-05-30T15:45:36.040Z,21.11
2019-05-30T15:48:10.308Z,21.16
2019-05-30T15:50:43.838Z,21.10
2019-05-30T15:53:17.377Z,21.14
2019-05-30T15:55:50.779Z,20.97
2019-05-30T15:58:24.224Z,21.15
2019-05-30T16:00:57.648Z,21.17
2019-05-30T16:03:31.051Z,21.09
2019-05-30T16:06:04.537Z,20.87
2019-05-30T16:08:37.928Z,20.85
2019-05-30T16:11:11.359Z,20.90
2019-05-30T16:13:44.772Z,20.82
2019-05-30T16:16:36.057Z,20.83
2019-05-30T16:18:53.340Z,20.99
2019-05-30T16:21:26.766Z,20.98
2019-05-30T16:24:00.159Z,20.75
2019-05-30T16:26:33.595Z,20.89
2019-05-30T16:29:07.091Z,20.84
2019-05-30T16:31:40.607Z,21.06
2019-05-30T16:34:14.020Z,21.36
2019-05-30T16:36:47.459Z,21.55
2019-05-30T16:39:20.871Z,21.46
2019-05-30T16:41:54.672Z,21.50
2019-05-30T16:44:28.106Z,21.13
2019-05-30T16:47:01.504Z,21.02
2019-05-30T16:49:34.926Z,21.28
2019-05-30T16:52:08.387Z,21.40
2019-05-30T16:54:42.049Z,21.46
2019-05-30T16:57:16.463Z,21.20
2019-05-30T16:59:49.987Z,21.08
2019-05-30T17:02:23.403Z,20.97
2019-05-30T17:04:56.843Z,20.99
2019-05-30T17:07:30.300Z,21.82
2019-05-30T17:10:20.892Z,21.49
2019-05-30T17:12:40.398Z,21.13
2019-05-30T17:15:15.610Z,22.59
2019-05-30T17:17:49.259Z,22.61
2019-05-30T17:20:23.178Z,21.67
2019-05-30T17:22:56.700Z,21.60
2019-05-30T17:25:30.110Z,21.35
2019-05-30T17:28:03.624Z,21.42
2019-05-30T17:30:37.104Z,21.30
2019-05-30T17:33:10.538Z,21.78
2019-05-30T17:35:44.303Z,22.43
2019-05-30T17:38:18.466Z,21.65
2019-05-30T17:40:51.906Z,21.31
2019-05-30T17:43:25.364Z,23.02
2019-05-30T17:45:58.778Z,23.24
2019-05-30T17:48:32.220Z,23.05
2019-05-30T17:51:05.697Z,22.94
2019-05-30T17:53:39.146Z,22.31
2019-05-30T17:56:12.537Z,21.88
2019-05-30T17:58:45.968Z,21.19
2019-05-30T18:01:20.223Z,20.99
2019-05-30T18:03:53.631Z,20.93
2019-05-30T18:06:27.032Z,20.77
2019-05-30T18:09:00.514Z,20.55
2019-05-30T18:11:34.042Z,20.67
2019-05-30T18:14:07.538Z,20.58
2019-05-30T18:16:40.968Z,20.47
2019-05-30T18:19:14.503Z,20.37
2019-05-30T18:21:48.016Z,20.28
2019-05-30T18:24:21.457Z,20.14
2019-05-30T18:26:54.837Z,20.09
2019-05-30T18:29:28.250Z,20.04
2019-05-30T18:32:01.665Z,20.00
2019-05-30T18:34:35.077Z,19.98
2019-05-30T18:37:08.503Z,19.93
2019-05-30T18:39:41.897Z,19.85
2019-05-30T18:42:15.413Z,19.72
2019-05-30T18:44:48.848Z,19.65
2019-05-30T18:47:22.968Z,19.58
2019-05-30T18:49:57.909Z,19.50
2019-05-30T18:52:32.555Z,19.39
2019-05-30T18:55:08.196Z,19.28
2019-05-30T18:57:41.638Z,19.20
2019-05-30T19:00:16.991Z,19.14
2019-05-30T19:02:50.422Z,19.05
2019-05-30T19:05:24.472Z,18.96
2019-05-30T19:07:57.905Z,18.87
2019-05-30T19:10:32.164Z,18.78
2019-05-30T19:13:05.776Z,18.70
2019-05-30T19:15:39.190Z,18.60
2019-05-30T19:18:12.635Z,18.54
2019-05-30T19:20:46.059Z,18.47
2019-05-30T19:23:19.489Z,18.38
2019-05-30T19:25:52.902Z,18.30
2019-05-30T19:28:28.533Z,18.24
2019-05-30T19:31:02.059Z,18.19
2019-05-30T19:33:35.479Z,18.10
2019-05-30T19:36:08.883Z,17.99
2019-05-30T19:38:42.309Z,17.82
2019-05-30T19:41:15.711Z,17.82
2019-05-30T19:43:49.207Z,17.72
2019-05-30T19:46:22.644Z,17.54
2019-05-30T19:48:56.073Z,17.48
2019-05-30T19:51:31.329Z,17.43
2019-05-30T19:54:04.765Z,17.33
2019-05-30T19:56:40.834Z,17.24
2019-05-30T19:59:13.339Z,17.20
2019-05-30T20:01:46.739Z,17.12
2019-05-30T20:04:20.189Z,17.04
2019-05-30T20:06:53.654Z,17.04
2019-05-30T20:09:27.119Z,16.99
2019-05-30T20:12:03.990Z,16.96
2019-05-30T20:14:35.688Z,16.90
2019-05-30T20:17:09.451Z,16.88
2019-05-30T20:19:42.890Z,16.75
2019-05-30T20:22:16.274Z,16.67
2019-05-30T20:24:49.674Z,16.59
2019-05-30T20:27:23.071Z,16.49
2019-05-30T20:29:56.879Z,16.37
2019-05-30T20:32:30.391Z,16.23
2019-05-30T20:35:04.482Z,16.07
2019-05-30T20:37:38.734Z,15.96
2019-05-30T20:40:13.027Z,15.90
2019-05-30T20:42:47.097Z,15.88
2019-05-30T20:45:20.906Z,15.92
2019-05-30T20:47:54.317Z,15.99
2019-05-30T20:50:27.909Z,15.95
2019-05-30T20:53:01.327Z,16.02
2019-05-30T20:55:34.775Z,15.98
2019-05-30T20:58:08.184Z,15.94
2019-05-30T21:00:42.244Z,15.94
2019-05-30T21:03:15.845Z,15.95
2019-05-30T21:05:49.461Z,15.91
2019-05-30T21:08:23.611Z,15.89
2019-05-30T21:10:58.662Z,15.84
2019-05-30T21:13:36.208Z,15.81
2019-05-30T21:16:13.248Z,15.75
2019-05-30T21:18:46.738Z,15.73
2019-05-30T21:21:20.316Z,15.73
2019-05-30T21:23:53.729Z,15.70
2019-05-30T21:26:27.161Z,15.66
2019-05-30T21:29:00.835Z,15.64
2019-05-30T21:31:34.287Z,15.64
2019-05-30T21:34:07.762Z,15.57
2019-05-30T21:36:41.939Z,15.53
2019-05-30T21:39:15.430Z,15.46
2019-05-30T21:41:48.942Z,15.43
2019-05-30T21:44:22.343Z,15.42
2019-05-30T21:46:55.793Z,15.45
2019-05-30T21:49:29.192Z,15.55
2019-05-30T21:52:02.688Z,15.59
2019-05-30T21:54:36.077Z,15.52
2019-05-30T21:57:09.494Z,15.54
2019-05-30T21:59:44.078Z,15.48
2019-05-30T22:02:17.892Z,15.49
2019-05-30T22:04:51.266Z,15.45
2019-05-30T22:07:24.843Z,15.49
2019-05-30T22:09:58.245Z,15.55
2019-05-30T22:12:31.646Z,15.57
2019-05-30T22:15:06.676Z,15.52
2019-05-30T22:17:40.165Z,15.48
2019-05-30T22:20:14.015Z,15.44
2019-05-30T22:22:48.175Z,15.36
2019-05-30T22:25:21.625Z,15.34
2019-05-30T22:27:55.039Z,15.30
2019-05-30T22:30:28.440Z,15.33
2019-05-30T22:33:01.874Z,15.30
2019-05-30T22:35:36.164Z,15.30
2019-05-30T22:38:09.572Z,15.24
2019-05-30T22:40:43.744Z,15.23
2019-05-30T22:43:25.366Z,15.16
2019-05-30T22:45:52.743Z,15.25
2019-05-30T22:48:26.153Z,15.15
2019-05-30T22:50:59.627Z,15.10
2019-05-30T22:53:33.066Z,15.07
2019-05-30T22:56:06.470Z,15.06
2019-05-30T22:58:39.893Z,15.06
2019-05-30T23:01:13.375Z,15.01
2019-05-30T23:03:47.193Z,15.05
2019-05-30T23:06:20.596Z,15.11
2019-05-30T23:08:54.913Z,15.09
2019-05-30T23:11:28.507Z,15.05
2019-05-30T23:14:01.937Z,15.04
2019-05-30T23:16:35.336Z,15.05
2019-05-30T23:19:08.768Z,15.02
2019-05-30T23:21:42.189Z,14.98
2019-05-30T23:24:15.616Z,14.84
2019-05-30T23:26:49.436Z,14.85
2019-05-30T23:29:22.945Z,14.75
2019-05-30T23:31:56.361Z,14.74
2019-05-30T23:34:29.791Z,14.74
2019-05-30T23:37:03.184Z,14.71
2019-05-30T23:39:36.643Z,14.65
2019-05-30T23:42:10.065Z,14.46
2019-05-30T23:44:43.470Z,14.47
2019-05-30T23:47:16.914Z,14.54
2019-05-30T23:49:51.655Z,14.51
2019-05-30T23:52:25.138Z,14.43
2019-05-30T23:54:58.558Z,14.43
2019-05-30T23:57:31.933Z,14.44
